createdAt,value
2023-02-27T00:04:07.347Z,14.40
2023-02-27T00:09:13.167Z,17.40
2023-02-27T00:14:19.279Z,14.00
2023-02-27T00:19:25.432Z,10.00
2023-02-27T00:24:31.439Z,13.60
2023-02-27T00:29:37.612Z,12.60
2023-02-27T00:34:43.944Z,11.70
2023-02-27T00:39:50.418Z,12.40
2023-02-27T00:44:56.153Z,11.30
2023-02-27T00:50:02.625Z,10.00
2023-02-27T00:55:10.473Z,10.60
2023-02-27T01:00:17.983Z,14.90
2023-02-27T01:05:24.236Z,13.10
2023-02-27T01:10:30.744Z,10.60
2023-02-27T01:15:37.933Z,10.80
2023-02-27T01:20:43.701Z,12.40
2023-02-27T01:25:52.053Z,11.90
2023-02-27T01:30:57.865Z,10.70
2023-02-27T01:36:04.066Z,9.90
2023-02-27T01:41:10.114Z,11.10
2023-02-27T01:46:16.081Z,12.00
2023-02-27T01:51:24.082Z,12.60
2023-02-27T01:56:32.305Z,11.40
2023-02-27T02:01:39.153Z,10.30
2023-02-27T02:06:50.389Z,11.60
2023-02-27T02:11:59.801Z,10.10
2023-02-27T02:17:18.553Z,8.10
2023-02-27T02:23:15.832Z,12.40
2023-02-27T02:28:43.908Z,10.90
2023-02-27T02:34:19.518Z,8.10
2023-02-27T02:39:46.084Z,10.70
2023-02-27T02:45:03.156Z,11.60
2023-02-27T02:50:14.890Z,10.90
2023-02-27T02:55:24.865Z,11.70
2023-02-27T03:00:35.877Z,9.90
2023-02-27T03:05:49.109Z,11.70
2023-02-27T03:10:57.867Z,9.50
2023-02-27T03:16:08.101Z,10.50
2023-02-27T03:21:22.746Z,10.70
2023-02-27T03:26:34.041Z,10.30
2023-02-27T03:31:47.736Z,11.30
2023-02-27T03:37:01.402Z,10.10
2023-02-27T03:42:16.489Z,8.60
2023-02-27T03:47:55.226Z,10.00
2023-02-27T03:53:03.840Z,10.40
2023-02-27T03:58:09.808Z,10.60
2023-02-27T04:03:16.076Z,12.00
2023-02-27T04:08:44.601Z,10.60
2023-02-27T04:14:07.293Z,13.90
2023-02-27T04:19:27.681Z,12.70
2023-02-27T04:24:42.892Z,13.30
2023-02-27T04:29:58.218Z,11.20
2023-02-27T04:35:11.642Z,12.20
2023-02-27T04:40:21.094Z,13.50
2023-02-27T04:45:30.022Z,12.30
2023-02-27T04:50:42.338Z,9.50
2023-02-27T04:55:51.601Z,14.00
2023-02-27T05:01:01.616Z,11.50
2023-02-27T05:06:11.473Z,11.80
2023-02-27T05:11:25.204Z,13.30
2023-02-27T05:16:37.300Z,11.30
2023-02-27T05:21:51.936Z,12.10
2023-02-27T05:27:24.228Z,9.60
2023-02-27T05:32:40.855Z,6.80
2023-02-27T05:37:50.463Z,13.20
2023-02-27T05:43:02.355Z,20.80
2023-02-27T05:48:12.697Z,14.20
2023-02-27T05:53:21.418Z,18.00
2023-02-27T05:58:30.948Z,10.30
2023-02-27T06:03:38.445Z,9.40
2023-02-27T06:08:45.467Z,12.70
2023-02-27T06:13:51.194Z,6.20
2023-02-27T06:18:57.757Z,10.90
2023-02-27T06:24:04.648Z,9.50
2023-02-27T06:29:10.383Z,12.10
2023-02-27T06:34:16.096Z,7.10
2023-02-27T06:39:22.858Z,11.70
2023-02-27T06:44:29.428Z,20.20
2023-02-27T06:49:36.498Z,10.70
2023-02-27T06:54:42.335Z,12.00
2023-02-27T06:59:48.028Z,13.10
2023-02-27T07:04:53.679Z,9.80
2023-02-27T07:09:59.686Z,6.00
2023-02-27T07:15:07.886Z,7.30
2023-02-27T07:20:15.368Z,29.90
2023-02-27T07:25:21.415Z,8.90
2023-02-27T07:30:27.328Z,25.40
2023-02-27T07:35:33.204Z,88.90
2023-02-27T07:40:39.330Z,13.00
2023-02-27T07:45:45.156Z,60.20
2023-02-27T07:50:50.849Z,99.20
2023-02-27T07:55:56.812Z,25.90
2023-02-27T08:01:03.201Z,9.50
2023-02-27T08:06:09.155Z,5.10
2023-02-27T08:11:15.751Z,7.10
2023-02-27T08:16:21.472Z,5.90
2023-02-27T08:21:28.010Z,2.40
2023-02-27T08:26:34.004Z,3.80
2023-02-27T08:31:40.049Z,5.30
2023-02-27T08:36:46.549Z,2.70
2023-02-27T08:41:53.651Z,3.80
2023-02-27T08:46:59.430Z,3.80
2023-02-27T08:52:05.990Z,6.50
2023-02-27T08:57:11.872Z,14.30
2023-02-27T09:02:18.395Z,6.00
2023-02-27T09:07:24.303Z,4.60
2023-02-27T09:12:30.518Z,4.80
2023-02-27T09:17:36.457Z,13.80
2023-02-27T09:22:42.719Z,4.70
2023-02-27T09:27:49.041Z,8.00
2023-02-27T09:32:55.155Z,9.60
2023-02-27T09:38:01.848Z,4.20
2023-02-27T09:43:17.384Z,4.80
2023-02-27T09:48:30.649Z,5.20
2023-02-27T09:53:41.164Z,5.50
2023-02-27T09:58:52.738Z,6.30
2023-02-27T10:04:13.754Z,5.20
2023-02-27T10:09:35.438Z,5.80
2023-02-27T10:14:47.317Z,3.70
2023-02-27T10:19:54.956Z,5.10
2023-02-27T10:25:04.447Z,7.60
2023-02-27T10:30:29.856Z,3.90
2023-02-27T10:35:40.459Z,4.00
2023-02-27T10:40:48.512Z,5.90
2023-02-27T10:45:56.187Z,5.10
2023-02-27T10:51:24.388Z,4.00
2023-02-27T10:56:31.232Z,4.10
2023-02-27T11:01:50.068Z,6.40
2023-02-27T11:06:57.577Z,8.90
2023-02-27T11:12:25.374Z,11.70
2023-02-27T11:17:35.012Z,10.70
2023-02-27T11:22:41.968Z,14.30
2023-02-27T11:27:48.496Z,5.50
2023-02-27T11:32:57.002Z,5.00
2023-02-27T11:38:05.427Z,3.60
2023-02-27T11:43:20.461Z,6.50
2023-02-27T11:48:30.917Z,5.20
2023-02-27T11:54:16.449Z,5.30
2023-02-27T11:59:38.933Z,4.00
2023-02-27T12:04:51.869Z,6.30
2023-02-27T12:10:04.929Z,5.80
2023-02-27T12:15:24.072Z,9.00
2023-02-27T12:20:36.110Z,4.60
2023-02-27T12:25:49.372Z,6.20
2023-02-27T12:31:07.498Z,8.80
2023-02-27T12:36:15.337Z,19.70
2023-02-27T12:41:42.486Z,8.90
2023-02-27T12:46:55.306Z,10.40
2023-02-27T12:52:13.402Z,6.90
2023-02-27T12:57:37.260Z,4.90
2023-02-27T13:02:49.930Z,6.10
2023-02-27T13:08:05.344Z,7.10
2023-02-27T13:13:18.018Z,8.50
2023-02-27T13:18:37.427Z,6.10
2023-02-27T13:23:55.821Z,6.40
2023-02-27T13:29:03.549Z,48.10
2023-02-27T13:34:18.316Z,37.40
2023-02-27T13:39:56.100Z,12.20
2023-02-27T13:45:04.744Z,9.90
2023-02-27T13:50:52.996Z,7.70
2023-02-27T14:01:36.976Z,7.50
2023-02-27T14:06:47.607Z,4.60
2023-02-27T14:11:59.737Z,9.20
2023-02-27T14:17:06.633Z,10.40
2023-02-27T14:22:32.762Z,10.90
2023-02-27T14:27:49.737Z,21.00
2023-02-27T14:33:00.816Z,16.50
2023-02-27T14:38:11.877Z,12.50
2023-02-27T14:43:29.329Z,11.40
2023-02-27T14:48:37.859Z,19.40
2023-02-27T14:53:59.567Z,7.60
2023-02-27T14:59:27.744Z,11.40
2023-02-27T15:04:34.749Z,21.30
2023-02-27T15:09:44.791Z,10.30
2023-02-27T15:14:54.381Z,8.70
2023-02-27T15:27:17.138Z,7.30
2023-02-27T15:32:29.901Z,10.40
2023-02-27T15:37:36.593Z,13.20
2023-02-27T15:42:44.509Z,21.30
2023-02-27T15:47:51.373Z,16.00
2023-02-27T15:53:04.369Z,17.50
2023-02-27T15:58:20.083Z,24.00
2023-02-27T16:03:30.951Z,37.40
2023-02-27T16:13:41.893Z,27.40
2023-02-27T16:18:49.220Z,17.10
2023-02-27T16:24:15.904Z,50.30
2023-02-27T16:29:24.121Z,20.30
2023-02-27T16:34:45.084Z,11.40
2023-02-27T16:39:54.640Z,31.90
2023-02-27T16:45:00.763Z,23.60
2023-02-27T16:50:16.164Z,27.30
2023-02-27T16:55:22.142Z,30.10
2023-02-27T17:00:28.690Z,30.60
2023-02-27T17:05:36.833Z,34.90
2023-02-27T17:10:45.287Z,34.80
2023-02-27T17:15:51.553Z,42.40
2023-02-27T17:21:01.868Z,37.60
2023-02-27T17:26:07.950Z,55.60
2023-02-27T17:31:16.038Z,57.90
2023-02-27T17:36:22.893Z,49.20
2023-02-27T17:41:37.605Z,84.40
2023-02-27T17:46:43.512Z,84.00
2023-02-27T17:51:50.041Z,60.70
2023-02-27T17:56:56.072Z,54.20
2023-02-27T18:02:02.480Z,33.80
2023-02-27T18:07:08.683Z,39.60
2023-02-27T18:12:15.007Z,44.30
2023-02-27T18:17:22.206Z,53.00
2023-02-27T18:22:29.998Z,46.60
2023-02-27T18:27:40.228Z,31.20
2023-02-27T18:32:46.158Z,34.20
2023-02-27T18:37:52.576Z,35.90
2023-02-27T18:42:59.271Z,42.90
2023-02-27T18:48:07.024Z,39.00
2023-02-27T18:53:12.940Z,38.70
2023-02-27T18:58:19.324Z,35.00
2023-02-27T19:03:26.395Z,47.80
2023-02-27T19:08:32.190Z,69.40
2023-02-27T19:13:38.268Z,53.60
2023-02-27T19:18:44.299Z,64.50
2023-02-27T19:23:50.275Z,45.40
2023-02-27T19:28:57.006Z,76.60
2023-02-27T19:34:03.635Z,77.30
2023-02-27T19:39:10.198Z,70.60
2023-02-27T19:44:16.951Z,81.90
2023-02-27T19:49:23.424Z,107.70
2023-02-27T19:54:30.159Z,65.70
2023-02-27T19:59:35.997Z,59.50
2023-02-27T20:04:41.956Z,128.60
2023-02-27T20:09:48.346Z,109.70
2023-02-27T20:14:54.725Z,43.50
2023-02-27T20:20:02.905Z,47.70
2023-02-27T20:25:11.187Z,53.30
2023-02-27T20:30:18.054Z,41.90
2023-02-27T20:35:36.767Z,67.70
2023-02-27T20:40:43.420Z,77.80
2023-02-27T20:45:49.216Z,100.10
2023-02-27T20:50:55.272Z,109.10
2023-02-27T20:56:01.631Z,103.50
2023-02-27T21:01:11.987Z,91.30
2023-02-27T21:06:19.703Z,104.40
2023-02-27T21:11:29.178Z,121.70
2023-02-27T21:16:36.823Z,97.10
2023-02-27T21:21:42.907Z,106.30
2023-02-27T21:26:49.508Z,125.00
2023-02-27T21:31:55.593Z,116.50
2023-02-27T21:37:06.198Z,127.00
2023-02-27T21:42:12.768Z,118.80
2023-02-27T21:47:19.118Z,113.60
2023-02-27T21:52:24.895Z,105.60
2023-02-27T21:57:30.972Z,121.00
2023-02-27T22:02:38.452Z,114.60
2023-02-27T22:07:44.177Z,112.50
2023-02-27T22:12:50.630Z,117.40
2023-02-27T22:17:56.689Z,114.30
2023-02-27T22:23:04.791Z,132.70
2023-02-27T22:28:10.916Z,123.90
2023-02-27T22:33:16.993Z,147.30
2023-02-27T22:38:23.006Z,164.00
2023-02-27T22:43:31.231Z,163.90
2023-02-27T22:48:38.173Z,260.60
2023-02-27T22:53:46.113Z,218.10
2023-02-27T22:58:53.337Z,203.00
2023-02-27T23:04:02.706Z,196.70
2023-02-27T23:09:11.034Z,185.50
2023-02-27T23:14:17.558Z,140.70
2023-02-27T23:19:24.313Z,153.40
2023-02-27T23:24:30.411Z,148.00
2023-02-27T23:29:36.332Z,157.20
2023-02-27T23:34:49.292Z,138.60
2023-02-27T23:39:55.736Z,136.00
2023-02-27T23:45:20.494Z,124.20
2023-02-27T23:50:29.090Z,127.20
2023-02-27T23:55:37.746Z,119.00
